Time;durP1;ratioP1;P1;durP2;ratioP2;P2;SDS_P1;SDS_P2;PMS_P1;PMS_P2;Temp;Humidity;BMP_temperature;BMP_pressure;BME280_temperature;BME280_humidity;BME280_pressure;Samples;Min_cycle;Max_cycle;Signal;HPM_P1;HPM_P2
2022/06/21 00:00:28;;;;;;;3.88;1.08;;;16.60;81.50;;;;;;6253615;28;20477;-82
2022/06/21 00:03:30;;;;;;;4.88;1.00;;;16.60;81.50;;;;;;6254536;28;20109;-82
2022/06/21 00:06:32;;;;;;;1.70;0.60;;;16.60;81.50;;;;;;6253216;28;20471;-82
2022/06/21 00:09:35;;;;;;;0.75;0.30;;;16.60;81.80;;;;;;6253507;28;20099;-82
2022/06/21 00:12:37;;;;;;;1.00;0.50;;;16.70;82.50;;;;;;6251695;28;20052;-82
2022/06/21 00:15:40;;;;;;;1.65;0.43;;;16.70;82.10;;;;;;6253585;28;20056;-82
2022/06/21 00:18:43;;;;;;;6.55;0.57;;;16.60;82.40;;;;;;6253954;28;20049;-82
2022/06/21 00:21:46;;;;;;;0.60;0.50;;;16.60;82.60;;;;;;6252933;28;20060;-82
2022/06/21 00:24:51;;;;;;;1.88;0.77;;;16.50;83.20;;;;;;6252265;28;20055;-81
2022/06/21 00:27:54;;;;;;;1.73;0.50;;;16.40;83.70;;;;;;6270499;28;20053;-81
2022/06/21 00:30:56;;;;;;;4.50;0.70;;;16.40;84.00;;;;;;6277976;28;20059;-82
2022/06/21 00:33:59;;;;;;;1.02;0.50;;;16.20;84.20;;;;;;6273821;28;20049;-81
2022/06/21 00:37:01;;;;;;;1.02;0.50;;;16.30;84.70;;;;;;6272616;28;20055;-81
2022/06/21 00:40:13;;;;;;;2.60;0.70;;;16.30;84.70;;;;;;6272197;28;20037;-80
2022/06/21 00:43:19;;;;;;;0.95;0.43;;;16.30;84.70;;;;;;6274107;28;20060;-81
2022/06/21 00:46:31;;;;;;;1.98;0.35;;;16.30;84.90;;;;;;6276780;28;20051;-81
2022/06/21 00:49:36;;;;;;;0.90;0.50;;;16.40;85.00;;;;;;6278698;28;20059;-81
2022/06/21 00:52:43;;;;;;;1.83;0.55;;;16.30;84.90;;;;;;6279187;28;20178;-81
2022/06/21 00:55:52;;;;;;;2.20;0.98;;;16.30;85.60;;;;;;6280066;28;20052;-81
2022/06/21 00:58:54;;;;;;;2.65;0.85;;;16.20;85.80;;;;;;6278941;28;20049;-81
2022/06/21 01:01:59;;;;;;;3.40;0.65;;;16.10;86.30;;;;;;6278819;28;20057;-81
2022/06/21 01:05:02;;;;;;;2.63;0.65;;;15.90;86.80;;;;;;6279245;28;20053;-81
2022/06/21 01:08:05;;;;;;;1.88;0.63;;;15.90;87.30;;;;;;6278658;28;20064;-81
2022/06/21 01:11:12;;;;;;;1.75;0.60;;;15.90;87.70;;;;;;6279146;28;20057;-80
2022/06/21 01:14:16;;;;;;;1.33;0.45;;;15.80;87.90;;;;;;6278025;28;20049;-81
2022/06/21 01:17:19;;;;;;;0.98;0.52;;;15.70;88.30;;;;;;6279389;28;20040;-81
2022/06/21 01:20:24;;;;;;;5.45;0.85;;;15.70;88.60;;;;;;6278920;28;20130;-81
2022/06/21 01:23:42;;;;;;;1.30;0.70;;;15.60;88.80;;;;;;6279116;28;20051;-80
2022/06/21 01:26:50;;;;;;;2.03;0.63;;;15.50;89.20;;;;;;6279002;28;20409;-81
2022/06/21 01:29:53;;;;;;;2.58;0.47;;;15.50;90.00;;;;;;6271660;28;20045;-81
2022/06/21 01:32:58;;;;;;;1.80;0.85;;;15.50;89.60;;;;;;6305052;28;20047;-81
2022/06/21 01:36:05;;;;;;;1.48;0.98;;;15.40;89.70;;;;;;6293460;28;20047;-81
2022/06/21 01:39:09;;;;;;;1.67;0.63;;;15.40;90.00;;;;;;6283945;28;20055;-81
2022/06/21 01:42:18;;;;;;;1.73;0.60;;;15.30;90.10;;;;;;6283483;28;20049;-81
2022/06/21 01:45:23;;;;;;;4.68;2.33;;;15.30;90.00;;;;;;6282798;28;20535;-81
2022/06/21 01:48:28;;;;;;;0.93;0.57;;;15.30;90.10;;;;;;6282324;28;20049;-80
2022/06/21 01:51:37;;;;;;;3.28;1.63;;;15.30;90.10;;;;;;6282925;28;20425;-81
2022/06/21 01:54:43;;;;;;;0.90;0.40;;;15.40;90.00;;;;;;6282781;28;20482;-81
2022/06/21 01:57:48;;;;;;;2.78;1.75;;;15.40;90.00;;;;;;6280854;28;20144;-81
2022/06/21 02:00:55;;;;;;;1.75;0.80;;;15.40;89.90;;;;;;6281804;28;20044;-82
2022/06/21 02:03:59;;;;;;;1.55;0.50;;;15.40;89.80;;;;;;6283530;28;20054;-80
2022/06/21 02:07:04;;;;;;;0.70;0.47;;;15.40;89.80;;;;;;6282790;28;20120;-81
2022/06/21 02:10:19;;;;;;;0.90;0.40;;;15.50;89.60;;;;;;6281648;28;20498;-82
2022/06/21 02:13:28;;;;;;;1.52;0.60;;;15.60;89.40;;;;;;6282559;28;20131;-82
2022/06/21 02:16:30;;;;;;;1.63;0.60;;;15.50;89.20;;;;;;6282446;28;20055;-81
2022/06/21 02:19:40;;;;;;;0.88;0.52;;;15.50;89.30;;;;;;6282548;28;20049;-81
2022/06/21 02:22:42;;;;;;;2.03;0.50;;;15.40;89.50;;;;;;6282431;28;20045;-81
2022/06/21 02:25:45;;;;;;;1.00;0.40;;;15.30;89.80;;;;;;6282866;28;20080;-81
2022/06/21 02:28:48;;;;;;;2.72;0.55;;;15.30;90.00;;;;;;6278404;28;20502;-81
2022/06/21 02:31:50;;;;;;;2.85;0.55;;;15.30;90.00;;;;;;6278672;28;20049;-80
2022/06/21 02:34:57;;;;;;;2.10;0.45;;;15.30;90.20;;;;;;6296351;28;20068;-81
2022/06/21 02:38:04;;;;;;;1.85;0.55;;;15.30;90.50;;;;;;6276011;28;20419;-80
2022/06/21 02:41:09;;;;;;;2.53;0.80;;;15.30;90.30;;;;;;6276261;28;20041;-80
2022/06/21 02:44:17;;;;;;;0.75;0.38;;;15.20;90.40;;;;;;6276324;28;20045;-80
2022/06/21 02:47:24;;;;;;;0.55;0.40;;;15.20;90.40;;;;;;6277533;28;20065;-80
2022/06/21 02:50:40;;;;;;;2.67;0.70;;;15.30;90.30;;;;;;6277685;28;20044;-81
2022/06/21 02:53:52;;;;;;;2.70;0.65;;;15.30;90.30;;;;;;6276008;28;20624;-81
2022/06/21 02:57:00;;;;;;;1.75;0.60;;;15.30;90.20;;;;;;6277682;28;20053;-80
2022/06/21 03:00:07;;;;;;;3.92;0.75;;;15.20;90.40;;;;;;6277912;28;20060;-80
2022/06/21 03:03:15;;;;;;;3.65;0.50;;;15.10;90.60;;;;;;6277095;28;20106;-80
2022/06/21 03:06:17;;;;;;;;;;;15.10;90.60;;;;;;6276978;28;20041;-80
2022/06/21 03:09:22;;;;;;;1.30;0.80;;;15.10;90.70;;;;;;6274527;28;19921;-79
2022/06/21 03:12:27;;;;;;;1.25;0.63;;;15.10;90.50;;;;;;6277873;28;20072;-80
2022/06/21 03:15:30;;;;;;;1.88;0.57;;;15.20;90.50;;;;;;6277066;28;20072;-79
2022/06/21 03:18:38;;;;;;;0.40;0.28;;;15.10;90.50;;;;;;6275854;28;20051;-80
2022/06/21 03:21:41;;;;;;;1.88;0.75;;;15.10;90.70;;;;;;6284509;28;20052;-80
2022/06/21 03:24:43;;;;;;;1.58;0.70;;;15.20;90.50;;;;;;6280673;28;20052;-81
2022/06/21 03:27:52;;;;;;;3.40;0.93;;;15.20;90.40;;;;;;6280894;28;20098;-81
2022/06/21 03:31:00;;;;;;;3.50;0.65;;;15.30;90.30;;;;;;6271676;28;20049;-81
2022/06/21 03:34:04;;;;;;;0.60;0.47;;;15.30;90.30;;;;;;6254752;28;20525;-81
2022/06/21 03:37:07;;;;;;;1.27;0.40;;;15.30;90.20;;;;;;6253867;28;20099;-80
2022/06/21 03:43:35;;;;;;;3.80;0.88;;;15.40;90.00;;;;;;6249271;28;20045;-80
2022/06/21 03:46:45;;;;;;;1.50;0.83;;;15.40;89.50;;;;;;6248817;28;20049;-80
2022/06/21 03:49:54;;;;;;;1.70;0.47;;;15.40;89.30;;;;;;6249012;28;20049;-79
2022/06/21 03:53:00;;;;;;;0.90;0.40;;;15.50;89.20;;;;;;6249743;28;20087;-79
2022/06/21 03:56:06;;;;;;;2.42;0.70;;;15.50;89.00;;;;;;6248631;28;20052;-79
2022/06/21 03:59:19;;;;;;;1.05;0.70;;;15.60;88.90;;;;;;6248142;28;20053;-81
2022/06/21 04:02:27;;;;;;;2.58;0.40;;;15.70;88.40;;;;;;6249176;28;20423;-80
2022/06/21 04:05:30;;;;;;;;;;;15.90;87.90;;;;;;6249365;28;20055;-80
2022/06/21 04:08:38;;;;;;;1.25;0.40;;;16.00;87.40;;;;;;6248139;28;20268;-80
2022/06/21 04:11:44;;;;;;;1.50;0.57;;;16.30;86.20;;;;;;6249099;28;20061;-79
2022/06/21 04:14:50;;;;;;;1.63;0.40;;;16.50;85.10;;;;;;6248847;28;20050;-80
2022/06/21 04:17:57;;;;;;;1.05;0.50;;;16.70;83.90;;;;;;6248489;28;20090;-80
2022/06/21 04:21:05;;;;;;;1.35;0.60;;;16.90;83.40;;;;;;6247110;28;20419;-80
2022/06/21 04:24:13;;;;;;;3.17;0.57;;;17.00;82.80;;;;;;6247894;28;20045;-80
2022/06/21 04:27:20;;;;;;;9.20;1.17;;;17.10;82.20;;;;;;6248687;28;20053;-80
2022/06/21 04:30:27;;;;;;;0.85;0.50;;;18.00;79.70;;;;;;6251756;28;20609;-80
2022/06/21 04:33:34;;;;;;;3.80;2.47;;;18.90;75.90;;;;;;6272146;28;20522;-80
2022/06/21 04:36:39;;;;;;;2.25;0.50;;;19.30;73.60;;;;;;6273255;28;20309;-80
2022/06/21 04:39:47;;;;;;;1.58;0.50;;;19.80;71.00;;;;;;6273650;28;20056;-80
2022/06/21 04:42:53;;;;;;;0.80;0.30;;;19.90;70.60;;;;;;6273630;28;20056;-81
2022/06/21 04:45:59;;;;;;;2.83;0.60;;;19.90;70.20;;;;;;6274473;28;20057;-81
2022/06/21 04:49:09;;;;;;;0.47;0.32;;;19.50;70.30;;;;;;6277427;28;20045;-82
2022/06/21 04:52:16;;;;;;;1.80;0.50;;;18.90;72.30;;;;;;6296816;28;20048;-80
2022/06/21 04:55:22;;;;;;;0.68;0.47;;;18.80;72.90;;;;;;6296281;28;20509;-80
2022/06/21 04:58:25;;;;;;;0.90;0.47;;;19.00;72.50;;;;;;6280586;28;20080;-81
2022/06/21 05:01:33;;;;;;;5.30;1.05;;;19.50;70.60;;;;;;6279347;28;20369;-81
2022/06/21 05:04:39;;;;;;;2.25;0.68;;;20.50;67.50;;;;;;6278495;28;20123;-81
2022/06/21 05:07:45;;;;;;;1.00;0.35;;;21.50;63.20;;;;;;6279065;28;20049;-82
2022/06/21 05:10:51;;;;;;;1.77;0.40;;;21.90;61.10;;;;;;6279193;28;20064;-81
2022/06/21 05:13:56;;;;;;;0.65;0.35;;;22.40;59.20;;;;;;6296229;22;20129;-84
2022/06/21 05:16:58;;;;;;;1.48;0.43;;;23.20;56.50;;;;;;6306850;28;20072;-85
2022/06/21 05:20:04;;;;;;;4.07;0.60;;;23.90;54.30;;;;;;6306549;28;20044;-85
2022/06/21 05:23:08;;;;;;;3.00;0.98;;;24.10;52.40;;;;;;6305117;28;20048;-83
2022/06/21 05:26:22;;;;;;;2.10;0.52;;;24.10;52.40;;;;;;6305846;28;20119;-85
2022/06/21 05:29:30;;;;;;;1.05;0.50;;;23.50;53.10;;;;;;6306167;28;20063;-84
2022/06/21 05:32:33;;;;;;;;;;;22.90;54.10;;;;;;6301841;28;20417;-85
2022/06/21 05:35:37;;;;;;;3.40;0.73;;;22.20;56.40;;;;;;6288527;28;19978;-86
2022/06/21 05:38:50;;;;;;;4.25;0.77;;;22.70;55.80;;;;;;6288052;28;20083;-85
2022/06/21 05:41:55;;;;;;;2.97;0.47;;;23.70;53.70;;;;;;6287328;28;20059;-84
2022/06/21 05:45:02;;;;;;;2.63;0.60;;;24.60;51.00;;;;;;6288597;28;20053;-85
2022/06/21 05:48:11;;;;;;;2.03;0.40;;;25.80;49.00;;;;;;6288924;28;20123;-85
2022/06/21 05:51:17;;;;;;;4.07;0.90;;;26.40;46.30;;;;;;6292597;28;20491;-85
2022/06/21 05:54:24;;;;;;;2.95;0.35;;;25.30;48.50;;;;;;6292454;28;20048;-85
2022/06/21 05:57:34;;;;;;;1.48;0.50;;;25.30;48.60;;;;;;6298038;28;20049;-83
2022/06/21 06:00:43;;;;;;;6.80;1.35;;;25.70;48.00;;;;;;6288032;28;20486;-85
2022/06/21 06:03:51;;;;;;;1.67;0.60;;;26.90;46.00;;;;;;6287233;28;20344;-83
2022/06/21 06:06:57;;;;;;;2.58;0.70;;;28.00;43.50;;;;;;6286176;28;20109;-83
2022/06/21 06:10:00;;;;;;;0.85;0.52;;;29.20;41.30;;;;;;6283304;28;20044;-84
2022/06/21 06:13:08;;;;;;;2.42;0.60;;;29.70;40.00;;;;;;6285034;28;20047;-84
2022/06/21 06:16:33;;;;;;;1.92;0.95;;;29.10;40.10;;;;;;6306763;28;20067;-85
2022/06/21 06:19:43;;;;;;;1.55;0.65;;;27.60;41.90;;;;;;6311000;28;20417;-85
2022/06/21 06:22:53;;;;;;;9.98;1.15;;;26.40;44.70;;;;;;6311455;28;20058;-84
2022/06/21 06:25:59;;;;;;;1.63;0.28;;;26.60;45.20;;;;;;6310661;28;20059;-85
2022/06/21 06:29:07;;;;;;;2.72;0.47;;;26.90;43.90;;;;;;6309868;28;20553;-86
2022/06/21 06:32:17;;;;;;;2.80;0.40;;;27.40;43.40;;;;;;6314623;28;20059;-84
2022/06/21 06:35:24;;;;;;;4.55;1.00;;;28.00;42.70;;;;;;6308958;28;20055;-85
2022/06/21 06:38:29;;;;;;;3.55;0.90;;;29.00;41.20;;;;;;6309087;28;20100;-85
2022/06/21 06:41:35;;;;;;;2.08;0.60;;;29.50;39.60;;;;;;6309826;28;20139;-85
2022/06/21 06:44:41;;;;;;;8.18;1.00;;;29.10;40.20;;;;;;6307751;28;20040;-82
2022/06/21 06:47:47;;;;;;;2.95;0.52;;;28.90;40.20;;;;;;6302949;28;20514;-84
2022/06/21 06:50:54;;;;;;;1.60;0.50;;;27.50;42.10;;;;;;6270537;28;20428;-85
2022/06/21 06:54:00;;;;;;;4.55;0.68;;;26.10;44.40;;;;;;6327155;28;20394;-82
2022/06/21 06:57:09;;;;;;;3.33;0.57;;;25.30;46.50;;;;;;6326709;28;20073;-83
2022/06/21 07:00:15;;;;;;;7.10;0.93;;;24.90;47.60;;;;;;6313449;28;20118;-83
2022/06/21 07:03:20;;;;;;;2.45;0.52;;;24.80;48.00;;;;;;6327949;28;20059;-83
2022/06/21 07:06:38;;;;;;;1.98;0.85;;;24.40;48.80;;;;;;6327522;28;20054;-83
2022/06/21 07:09:46;;;;;;;1.95;0.77;;;23.80;50.10;;;;;;6326389;28;20054;-82
2022/06/21 07:12:49;;;;;;;;;;;23.20;51.70;;;;;;6327109;28;20050;-84
2022/06/21 07:15:53;;;;;;;2.20;0.40;;;23.10;52.90;;;;;;6326329;28;19920;-81
2022/06/21 07:18:58;;;;;;;3.15;1.15;;;23.10;52.90;;;;;;6327015;28;20082;-82
2022/06/21 07:22:00;;;;;;;5.05;0.90;;;22.80;54.00;;;;;;6326586;28;20040;-83
2022/06/21 07:25:13;;;;;;;5.07;1.15;;;22.70;55.40;;;;;;6324709;28;20054;-81
2022/06/21 07:28:24;;;;;;;1.35;0.70;;;23.10;55.40;;;;;;6327936;28;20051;-82
2022/06/21 07:31:31;;;;;;;4.47;0.57;;;24.40;52.40;;;;;;6327318;28;20051;-82
2022/06/21 07:34:38;;;;;;;1.17;0.50;;;25.40;50.60;;;;;;6324757;28;20059;-83
2022/06/21 07:37:43;;;;;;;;;;;26.10;48.00;;;;;;6326498;28;20063;-80
2022/06/21 07:40:51;;;;;;;4.15;1.08;;;25.40;48.80;;;;;;6324939;28;19924;-84
2022/06/21 07:43:58;;;;;;;3.50;0.82;;;25.70;49.50;;;;;;6326599;28;20052;-82
2022/06/21 07:47:04;;;;;;;3.35;0.98;;;27.90;45.20;;;;;;6327333;28;20050;-82
2022/06/21 07:50:11;;;;;;;2.15;0.73;;;27.50;44.80;;;;;;6326219;28;20063;-81
2022/06/21 07:53:20;;;;;;;7.75;1.00;;;26.30;47.00;;;;;;6325509;28;20343;-79
2022/06/21 07:56:28;;;;;;;2.17;0.77;;;25.60;49.30;;;;;;6325550;28;20523;-80
2022/06/21 07:59:36;;;;;;;1.77;0.47;;;25.40;49.70;;;;;;6325792;28;20048;-83
2022/06/21 08:09:34;;;;;;;2.92;0.90;;;24.90;50.80;;;;;;6324880;28;20040;-82
2022/06/21 08:12:37;;;;;;;4.03;1.02;;;24.60;52.40;;;;;;6325633;28;20052;-84
2022/06/21 08:15:44;;;;;;;6.40;1.00;;;24.30;53.40;;;;;;6325321;28;20044;-83
2022/06/21 08:18:50;;;;;;;2.05;1.00;;;24.20;54.50;;;;;;6326433;28;20047;-80
2022/06/21 08:21:58;;;;;;;2.90;0.80;;;24.20;54.70;;;;;;6325901;28;20047;-81
2022/06/21 08:25:08;;;;;;;2.50;0.90;;;24.20;55.40;;;;;;6326433;28;20054;-85
2022/06/21 08:28:17;;;;;;;2.00;0.65;;;24.20;55.80;;;;;;6327672;28;20124;-82
2022/06/21 08:31:25;;;;;;;4.30;0.75;;;24.50;55.70;;;;;;6330114;28;20070;-83
2022/06/21 08:34:35;;;;;;;2.83;0.82;;;24.70;54.70;;;;;;6327526;28;20040;-85
2022/06/21 08:37:43;;;;;;;2.20;1.05;;;25.40;53.80;;;;;;6326875;28;20127;-83
2022/06/21 08:45:43;;;;;;;2.60;1.00;;;26.00;52.20;;;;;;6318871;28;20087;-81
2022/06/21 08:49:12;;;;;;;3.78;1.00;;;26.20;52.40;;;;;;6326556;28;20040;-84
2022/06/21 08:52:34;;;;;;;3.20;0.80;;;27.10;51.40;;;;;;6319304;28;20123;-79
2022/06/21 08:55:45;;;;;;;3.17;0.88;;;27.90;49.20;;;;;;6323685;28;20056;-82
2022/06/21 08:59:02;;;;;;;5.25;1.00;;;29.50;47.00;;;;;;6325806;28;20393;-83
2022/06/21 09:02:13;;;;;;;3.80;1.00;;;31.30;43.90;;;;;;6325968;28;20112;-84
2022/06/21 09:05:35;;;;;;;2.92;0.70;;;31.30;42.60;;;;;;6327668;28;20048;-83
2022/06/21 09:09:12;;;;;;;3.70;0.60;;;31.40;42.90;;;;;;6332972;28;20052;-84
2022/06/21 09:12:24;;;;;;;5.60;0.88;;;30.60;43.20;;;;;;6314373;28;20040;-81
2022/06/21 09:15:38;;;;;;;2.40;0.77;;;29.90;44.30;;;;;;6338977;28;20135;-80
2022/06/21 09:19:01;;;;;;;7.15;1.00;;;30.30;44.50;;;;;;6337522;28;20110;-81
2022/06/21 09:22:15;;;;;;;4.43;0.93;;;31.40;42.90;;;;;;6334378;28;20554;-83
2022/06/21 09:25:22;;;;;;;2.50;0.90;;;32.60;40.90;;;;;;6284875;28;20063;-81
2022/06/21 09:28:30;;;;;;;8.23;1.23;;;33.20;40.30;;;;;;6282795;28;20529;-81
2022/06/21 09:31:38;;;;;;;3.88;1.10;;;33.20;39.60;;;;;;6287135;28;20053;-82
2022/06/21 09:34:46;;;;;;;;;;;33.10;40.00;;;;;;6287909;28;20060;-81
2022/06/21 09:38:01;;;;;;;6.97;1.13;;;33.80;39.00;;;;;;6283430;28;19921;-81
2022/06/21 09:41:08;;;;;;;5.10;0.77;;;34.00;38.90;;;;;;6279758;28;20122;-81
2022/06/21 09:44:15;;;;;;;2.20;0.70;;;34.20;38.80;;;;;;6285586;28;20040;-83
2022/06/21 09:47:26;;;;;;;6.53;0.82;;;34.20;38.60;;;;;;6289621;28;20077;-84
2022/06/21 09:50:36;;;;;;;4.07;1.20;;;33.90;38.30;;;;;;6297182;28;20049;-84
2022/06/21 09:53:46;;;;;;;3.33;1.27;;;33.80;38.90;;;;;;6324609;28;20052;-85
2022/06/21 09:56:52;;;;;;;4.55;1.35;;;34.20;38.90;;;;;;6333616;28;20047;-83
2022/06/21 10:00:05;;;;;;;6.93;1.00;;;34.50;38.00;;;;;;6334005;28;20051;-85
2022/06/21 10:03:18;;;;;;;2.20;1.10;;;34.10;39.70;;;;;;6330896;28;20054;-83
2022/06/21 10:06:28;;;;;;;4.05;2.00;;;34.10;41.80;;;;;;6326854;28;20117;-83
2022/06/21 10:09:45;;;;;;;3.63;1.08;;;34.30;40.70;;;;;;6326491;28;20048;-84
2022/06/21 10:13:00;;;;;;;2.47;1.20;;;34.30;41.00;;;;;;6327645;28;20054;-80
2022/06/21 10:16:20;;;;;;;3.90;1.20;;;34.50;40.90;;;;;;6306889;28;20044;-86
2022/06/21 10:19:36;;;;;;;4.78;1.08;;;34.10;41.20;;;;;;6326513;28;20059;-85
2022/06/21 10:22:47;;;;;;;3.13;1.50;;;33.90;41.10;;;;;;6326648;28;20053;-83
2022/06/21 10:26:06;;;;;;;4.68;1.13;;;33.10;41.70;;;;;;6325701;28;20048;-85
2022/06/21 10:29:39;;;;;;;5.35;1.40;;;32.10;43.60;;;;;;6326593;28;20594;-84
2022/06/21 10:33:13;;;;;;;3.20;1.10;;;31.70;44.70;;;;;;6329829;28;20052;-86
2022/06/21 10:36:33;;;;;;;6.07;1.60;;;31.60;44.90;;;;;;6322671;28;20528;-85
2022/06/21 10:40:03;;;;;;;5.82;2.20;;;31.30;45.00;;;;;;6327225;28;20048;-85
2022/06/21 10:43:31;;;;;;;1.83;1.02;;;30.80;46.20;;;;;;6325809;28;20048;-84
2022/06/21 10:46:38;;;;;;;2.45;1.02;;;31.30;46.00;;;;;;6325565;28;20055;-83
2022/06/21 10:50:04;;;;;;;2.45;1.15;;;31.50;45.10;;;;;;6325889;28;20047;-83
2022/06/21 10:53:36;;;;;;;5.10;1.30;;;31.90;44.50;;;;;;6330794;28;20192;-85
2022/06/21 10:57:13;;;;;;;3.08;1.45;;;31.70;44.80;;;;;;6317369;28;20500;-84
2022/06/21 11:04:20;;;;;;;3.70;1.20;;;32.40;43.20;;;;;;6325621;28;20409;-83
2022/06/21 11:07:35;;;;;;;3.72;1.17;;;32.10;43.90;;;;;;6326737;28;20052;-86
2022/06/21 11:11:01;;;;;;;5.95;1.20;;;31.90;42.00;;;;;;6325285;28;20058;-84
2022/06/21 11:14:28;;;;;;;3.67;1.20;;;31.90;41.80;;;;;;6327885;28;20048;-83
2022/06/21 11:17:42;;;;;;;2.80;1.30;;;32.30;41.80;;;;;;6307665;28;20127;-85
2022/06/21 11:20:55;;;;;;;2.30;0.88;;;32.90;40.80;;;;;;6308693;28;20051;-86
2022/06/21 11:24:10;;;;;;;7.28;1.23;;;33.10;41.70;;;;;;6324748;28;20052;-84
2022/06/21 11:27:21;;;;;;;9.10;2.08;;;33.10;41.30;;;;;;6325282;28;20066;-85
2022/06/21 11:30:37;;;;;;;5.65;1.23;;;32.80;41.30;;;;;;6314758;28;20413;-85
2022/06/21 11:33:51;;;;;;;4.78;1.35;;;32.50;41.50;;;;;;6324815;28;20429;-85
2022/06/21 11:37:02;;;;;;;3.42;1.15;;;32.00;42.00;;;;;;6325871;28;20210;-84
2022/06/21 11:40:21;;;;;;;6.38;1.38;;;32.00;41.70;;;;;;6324720;28;20119;-86
2022/06/21 11:43:36;;;;;;;5.70;1.15;;;31.90;41.90;;;;;;6325753;28;20048;-85
2022/06/21 11:46:44;;;;;;;2.72;0.80;;;32.10;41.50;;;;;;6324865;28;20489;-85
2022/06/21 11:49:50;;;;;;;6.78;1.40;;;32.30;40.50;;;;;;6324403;28;20052;-85
2022/06/21 11:53:28;;;;;;;6.68;1.02;;;32.00;40.30;;;;;;6324917;28;20048;-84
2022/06/21 11:56:40;;;;;;;1.80;0.93;;;32.00;41.00;;;;;;6321559;28;20116;-85
2022/06/21 11:59:47;;;;;;;2.92;0.90;;;32.20;40.70;;;;;;6323678;28;20416;-84
2022/06/21 12:02:54;;;;;;;;;;;32.00;41.20;;;;;;6325157;28;20048;-85
2022/06/21 12:05:59;;;;;;;4.80;1.05;;;32.20;41.30;;;;;;6324375;28;19927;-85
2022/06/21 12:09:08;;;;;;;2.47;1.02;;;32.30;40.90;;;;;;6323717;28;20067;-85
2022/06/21 12:12:26;;;;;;;2.05;0.88;;;32.00;40.80;;;;;;6324127;28;20123;-85
2022/06/21 12:15:44;;;;;;;4.28;0.98;;;31.70;41.40;;;;;;6324119;28;20074;-85
2022/06/21 12:18:52;;;;;;;6.30;1.17;;;31.70;42.00;;;;;;6299045;28;20040;-84
2022/06/21 12:21:58;;;;;;;7.97;1.55;;;32.00;41.60;;;;;;6319087;28;20048;-86
2022/06/21 12:25:00;;;;;;;9.68;1.08;;;32.20;40.90;;;;;;6323991;28;20070;-84
2022/06/21 12:28:01;;;;;;;5.10;1.10;;;32.40;41.30;;;;;;6323838;28;20048;-85
2022/06/21 12:31:14;;;;;;;6.68;1.17;;;32.40;40.90;;;;;;6324222;28;20478;-85
2022/06/21 12:34:27;;;;;;;2.47;1.02;;;32.20;40.70;;;;;;6323699;28;20048;-86
2022/06/21 12:37:34;;;;;;;3.75;1.05;;;32.20;41.20;;;;;;6323910;28;20063;-84
2022/06/21 12:40:39;;;;;;;3.85;1.17;;;32.40;41.10;;;;;;6323916;28;20433;-85
2022/06/21 12:43:53;;;;;;;4.18;1.25;;;32.40;40.70;;;;;;6328256;28;20044;-86
2022/06/21 12:47:08;;;;;;;2.20;0.90;;;31.90;40.90;;;;;;6329253;28;20055;-86
2022/06/21 12:50:48;;;;;;;3.20;0.88;;;31.50;42.10;;;;;;6330435;28;20515;-86
2022/06/21 12:54:15;;;;;;;2.83;1.10;;;31.30;42.60;;;;;;6335614;28;20511;-85
2022/06/21 12:57:32;;;;;;;4.35;0.82;;;31.40;42.60;;;;;;6293240;28;20061;-86
2022/06/21 13:00:49;;;;;;;;;;;31.50;42.70;;;;;;6339656;28;20044;-87
2022/06/21 13:04:04;;;;;;;7.47;1.23;;;31.70;42.30;;;;;;6329135;28;19926;-86
2022/06/21 13:07:33;;;;;;;2.15;1.27;;;31.70;42.10;;;;;;6328537;28;20189;-82
2022/06/21 13:10:43;;;;;;;2.67;1.13;;;31.70;42.90;;;;;;6330745;28;20608;-86
2022/06/21 13:13:58;;;;;;;4.55;1.45;;;32.40;41.80;;;;;;6331481;28;20131;-84
2022/06/21 13:17:15;;;;;;;6.45;1.35;;;32.60;41.40;;;;;;6331004;28;20050;-84
2022/06/21 13:20:24;;;;;;;2.65;1.20;;;32.80;40.90;;;;;;6321507;28;20048;-84
2022/06/21 13:23:38;;;;;;;6.68;1.00;;;32.80;40.90;;;;;;6332704;28;20421;-83
2022/06/21 13:27:16;;;;;;;2.25;1.00;;;33.20;41.00;;;;;;6330265;28;20097;-84
2022/06/21 13:30:30;;;;;;;3.70;1.13;;;33.50;39.80;;;;;;6300468;28;20056;-85
2022/06/21 13:34:00;;;;;;;2.45;1.20;;;33.20;40.20;;;;;;6331263;28;20534;-83
2022/06/21 13:37:11;;;;;;;1.70;0.98;;;33.30;40.60;;;;;;6330147;28;20048;-84
2022/06/21 13:40:22;;;;;;;4.75;1.02;;;33.40;40.80;;;;;;6329554;28;20048;-83
2022/06/21 13:43:33;;;;;;;3.78;1.40;;;33.40;40.50;;;;;;6329853;28;20055;-84
2022/06/21 13:46:38;;;;;;;1.95;1.00;;;33.40;40.00;;;;;;6329712;28;20044;-84
2022/06/21 13:49:45;;;;;;;2.17;1.10;;;33.30;40.70;;;;;;6330051;28;20055;-84
2022/06/21 13:52:54;;;;;;;1.48;0.98;;;33.40;40.60;;;;;;6329892;28;20387;-83
2022/06/21 13:56:02;;;;;;;8.18;1.70;;;33.60;40.50;;;;;;6331555;28;20048;-84
2022/06/21 13:59:10;;;;;;;1.60;1.00;;;33.80;40.20;;;;;;6331733;28;20040;-84
2022/06/21 14:02:21;;;;;;;1.92;0.90;;;34.10;40.20;;;;;;6331334;28;20052;-84
2022/06/21 14:05:31;;;;;;;5.72;1.30;;;34.70;39.20;;;;;;6331189;28;20347;-83
2022/06/21 14:08:38;;;;;;;2.50;0.90;;;35.00;38.40;;;;;;6331111;28;20047;-83
2022/06/21 14:11:43;;;;;;;;;;;34.70;38.80;;;;;;6333943;28;20048;-82
2022/06/21 14:14:51;;;;;;;6.07;1.40;;;34.20;39.40;;;;;;6345361;28;19976;-83
2022/06/21 14:17:58;;;;;;;2.85;0.93;;;34.30;39.60;;;;;;6328457;28;20517;-83
2022/06/21 14:21:08;;;;;;;3.63;1.38;;;34.20;39.70;;;;;;6322092;28;20598;-82
2022/06/21 14:24:18;;;;;;;4.93;1.55;;;34.40;39.80;;;;;;6328814;28;20413;-83
2022/06/21 14:27:27;;;;;;;3.83;1.25;;;34.50;39.50;;;;;;6329804;28;20048;-85
2022/06/21 14:30:35;;;;;;;6.45;1.33;;;34.50;40.00;;;;;;6330416;28;20417;-83
2022/06/21 14:33:43;;;;;;;3.60;1.13;;;34.80;39.20;;;;;;6329107;28;20524;-84
2022/06/21 14:36:51;;;;;;;2.42;1.02;;;34.20;39.20;;;;;;6327547;28;20114;-83
2022/06/21 14:39:57;;;;;;;1.15;0.90;;;33.70;40.10;;;;;;6328724;28;20434;-84
2022/06/21 14:43:12;;;;;;;2.40;0.80;;;33.60;40.50;;;;;;6327728;28;20509;-83
2022/06/21 14:46:21;;;;;;;8.95;1.55;;;33.80;40.60;;;;;;6330590;28;20127;-86
2022/06/21 14:49:29;;;;;;;3.90;1.30;;;33.90;40.50;;;;;;6327159;28;20429;-86
2022/06/21 14:52:53;;;;;;;5.38;1.20;;;33.80;40.50;;;;;;6323500;28;20412;-84
2022/06/21 14:56:07;;;;;;;4.60;1.33;;;34.20;40.30;;;;;;6300718;28;20049;-82
2022/06/21 14:59:26;;;;;;;4.55;1.23;;;34.60;39.60;;;;;;6304193;28;20059;-83
2022/06/21 15:02:44;;;;;;;4.40;1.13;;;34.70;39.20;;;;;;6303470;28;20058;-82
2022/06/21 15:05:57;;;;;;;5.25;1.13;;;34.80;39.40;;;;;;6299304;28;20049;-82
2022/06/21 15:09:09;;;;;;;2.10;1.00;;;34.90;39.40;;;;;;6303339;28;20043;-81
2022/06/21 15:12:14;;;;;;;7.13;1.13;;;34.80;39.50;;;;;;6324930;28;20450;-84
2022/06/21 15:15:21;;;;;;;4.53;1.02;;;34.70;39.40;;;;;;6325987;28;20044;-80
2022/06/21 15:18:28;;;;;;;4.38;1.30;;;34.40;39.60;;;;;;6325221;28;20046;-84
2022/06/21 15:21:37;;;;;;;3.07;1.37;;;33.90;40.00;;;;;;6319356;28;20097;-83
2022/06/21 15:24:39;;;;;;;2.25;0.93;;;33.80;40.50;;;;;;6326152;28;20047;-83
2022/06/21 15:27:52;;;;;;;5.00;1.50;;;34.00;40.30;;;;;;6326444;28;20139;-81
2022/06/21 15:31:00;;;;;;;3.90;1.38;;;34.40;40.30;;;;;;6326705;28;20047;-83
2022/06/21 15:34:15;;;;;;;3.13;1.30;;;34.50;39.50;;;;;;6326450;28;20058;-83
2022/06/21 15:37:24;;;;;;;7.38;1.42;;;34.30;39.90;;;;;;6326012;28;20044;-81
2022/06/21 15:40:33;;;;;;;8.05;1.17;;;34.10;40.20;;;;;;6325847;28;20051;-83
2022/06/21 15:43:38;;;;;;;2.63;1.20;;;34.40;39.90;;;;;;6325911;28;20048;-83
2022/06/21 15:50:12;;;;;;;4.63;1.63;;;34.70;39.50;;;;;;6325653;28;20048;-81
2022/06/21 15:50:26;;;;;;;4.30;1.38;;;35.10;39.10;;;;;;6325199;28;20047;-81
2022/06/21 15:53:37;;;;;;;2.33;0.90;;;34.90;38.90;;;;;;6317916;28;20107;-83
2022/06/21 15:56:50;;;;;;;3.88;0.95;;;34.90;39.20;;;;;;6324405;28;20044;-83
2022/06/21 16:00:00;;;;;;;3.75;1.30;;;34.90;39.00;;;;;;6324741;28;20052;-83
2022/06/21 16:03:09;;;;;;;2.15;1.23;;;34.70;39.50;;;;;;6324698;28;20080;-86
2022/06/21 16:06:17;;;;;;;7.93;1.45;;;34.50;39.50;;;;;;6313683;28;20044;-84
2022/06/21 16:09:21;;;;;;;4.45;1.50;;;34.30;39.70;;;;;;6324906;28;20048;-86
2022/06/21 16:12:27;;;;;;;5.07;1.40;;;34.20;39.70;;;;;;6325502;28;20119;-84
2022/06/21 16:15:32;;;;;;;4.17;1.20;;;34.10;39.80;;;;;;6327682;28;20519;-84
2022/06/21 16:18:38;;;;;;;3.05;1.40;;;34.10;39.90;;;;;;6326541;28;20054;-86
2022/06/21 16:21:43;;;;;;;4.45;1.35;;;34.30;40.00;;;;;;6317706;28;20040;-86
2022/06/21 16:24:52;;;;;;;5.53;1.20;;;34.40;39.80;;;;;;6304252;28;20044;-83
2022/06/21 16:28:03;;;;;;;5.28;1.52;;;34.40;39.80;;;;;;6299690;28;20053;-84
2022/06/21 16:34:36;;;;;;;3.63;1.40;;;34.00;39.90;;;;;;6299229;28;20056;-85
2022/06/21 16:37:45;;;;;;;4.53;1.65;;;34.40;39.70;;;;;;6296278;28;20052;-85
2022/06/21 16:44:21;;;;;;;6.32;1.35;;;34.70;39.20;;;;;;6302265;28;20036;-84
2022/06/21 16:47:32;;;;;;;3.72;1.42;;;34.90;39.20;;;;;;6301155;28;20049;-82
2022/06/21 16:50:53;;;;;;;7.40;1.25;;;34.90;39.40;;;;;;6302831;28;20044;-82
2022/06/21 16:53:58;;;;;;;5.68;1.23;;;34.60;40.30;;;;;;6316644;28;20044;-81